Keene, NY (12942)

02:01 PM EDT on مارس 31, 2015 (GMT -0400)
Sentinel Range Foothills | | Change Station
CLOSE
Current Station
Personal Weather Stations
Location: Keene, NY
Elevation: 1165 ft
Nearby Weather Stations

Elev 1165 ft 44.27 °N, 73.81 °W | Updated 1 second ago

صافية
صافية
36.7 °F
Feels Like 34 °F
N
4.0
ريح متغير ريح from WSW
Gusts 6.0 mph

هذا اليوم
High -- | Low -- °F
--% Chance of Precip.
Yesterday
High -- | Low -- °F
Precip. -- في
6:38 AM 7:20 PM
الأحدب الأول, 88% visible
الضغط 29.75 في
وضوح الرؤية 10.0 أميال
سحابات صافية
رياح باردة 34 °F
نقطة الندى 14 °F
الرطوبة 39%
Rainfall 0.05 في
عمق الثلج Not available.
الأشعة فوق البنفسجية 8 out of 12
Pollen 1.70 out of 12
جودة الهواء Not available.
Flu Activity Not available.
METAR KSLK 311751Z AUTO VRB05KT 10SM CLR 00/M14 A2969 RMK AO2 SLP072 T00001139 10000 21044 56013

More Conditions Fewer Conditions

الضغط 29.75 في
وضوح الرؤية 10.0 أميال
سحابات صافية
رياح باردة 34 °F
نقطة الندى 14 °F
الرطوبة 39%
Rainfall 0.05 في
عمق الثلج Not available.
الأشعة فوق البنفسجية 8 out of 12
Pollen 1.70 out of 12
جودة الهواء Not available.
Flu Activity Not available.
METAR KSLK 311751Z AUTO VRB05KT 10SM CLR 00/M14 A2969 RMK AO2 SLP072 T00001139 10000 21044 56013

More Conditions Fewer Conditions

10-Day Weather Forecast

Almanac

علم الفلك

Mar. 31, 2015 Rise Set
Actual Time
Civil Twilight
Nautical Twilight
Astronomical Twilight
قمر
Length Of Visible Light
طول الیوم
Tomorrow will be .
, % of the Moon is Illuminated

Today's Extremes

State Highs State Lows

Community

WunderPhotos

Upload Photos

1,809,786 photos uploaded!

WunderBlogs® & News

Nearby

جودة الهواء

  جودة الهواء AQ Index Pollutant
Not available.

عمق الثلج

Station Depth Elevation

Earthquake Activity

City Distance Mag. Time & Date
Minimum magnitude displayed is 2.5.

Coastal Water Temperatures

مكان درجات الحرارة

Stations

Nearby Weather Stations

Station Location الحرارة رياح باردة نقطة الندى الرطوبة ريح Precip. Elev تحديث Type